Terminal Aerodrome Forecast
Issued by NWS

Home | Current Version | Previous Version | Text Only | Print | Product List | Glossary On
Versions: 1 2 3 4 5 6 7 8 9 10 11 12 13 14 15 16 17 18 19 20 21
000
FTUS45 KSLC 221559 AAA
TAF36U
TAF AMD
K36U 221559Z 2216/2312 VRB05KT P6SM VCSH SCT020 BKN050
     FM221800 16012KT P6SM VCSH SCT010 BKN030
     FM222100 17011KT 2SM -SN BR SCT007 BKN015
     FM230000 16014KT 1SM -SN SCT005 BKN010
     FM231100 20012KT 3SM -SN BKN010 OVC035=

USA.gov is the U.S. government's official web portal to all federal, state and local government web resources and services.